首页
METAR-TAF:

METAR-TAF

机场 :

Eau Claire, 威斯康辛州, 美国

纬度: 44-51-55N, 经度: 091-29-06W, 海拔: 277米

当前天气观测

该预报发布于18分钟前的09:56 UTC
风速3节,风向南转南东
温度 18°C
湿度 94%
气压 1012 hPa
能見度: 16.1公里
天空无云

METAR: KEAU 260956Z AUTO 15003KT 10SM CLR 18/17 A2989 RMK AO2 SLP116 T01830172

时间: 05:14 (10:14 UTC)

预报

该预报发布于1小时和37分钟前的08:37 UTC
预报有效从26日的 09点(UTC)到 27日的 06点(UTC)
风速3节,风向东南
能見度: 9.7公里
散云层高于400英尺
阴天层高于5000英尺
轻雾
短暂存在
从 26日的 09点(UTC)到 26日的 12点(UTC)
能見度: 3.2公里
多云层高于400英尺
轻雾
从 26日的 1200点(UTC)
风速7节,风向南转南东
能見度: 9.7公里
多云层高于3000英尺
轻雾
从 26日的 1700点(UTC)
风速11节,风向
能見度: 10公里
多云层高于9000英尺, 积雨云.
附近有雷暴
从 26日的 2100点(UTC)
风速10节,风向,有时为18节阵风
能見度: 9.7公里
多云层高于5000英尺
小阵雨
几率 30%
从 26日的 21点(UTC)到 27日的 02点(UTC)
能見度: 4.8公里
多云层高于3000英尺, 积雨云.
雷暴, 雨, 轻雾
从 27日的 0400点(UTC)
风速8节,风向
能見度: 10公里
多云层高于4000英尺

TAF: KEAU 260837Z 2609/2706 13003KT 6SM BR SCT004 OVC050 TEMPO 2609/2612 2SM BR BKN004 FM261200 16007KT 6SM BR BKN030 FM261700 18011KT P6SM VCTS BKN090CB FM262100 18010G18KT 6SM -SHRA BKN050 PROB30 2621/2702 3SM TSRA BR BKN030CB FM270400 17008KT P6SM BKN040

超过4000个机场的气象观测和天气预报(METAR&TAF报告)。

可查询的气象台以黄色和红色小点在地图上表示。

将鼠标移到小点上方,可查看气象台名称。

然后点击查看天气观测和预报。

如需切换地图:点击带黑十字的绿色按钮放大地图;点击带横线的绿色按钮缩小地图;或者点击绿色箭头查看邻近地区的地图。


METAR-TAF: